createdAt,value
2022-09-12T00:01:28.542Z,21.30
2022-09-12T00:03:58.352Z,21.30
2022-09-12T00:06:29.164Z,21.40
2022-09-12T00:09:01.883Z,21.50
2022-09-12T00:11:30.665Z,21.60
2022-09-12T00:14:03.601Z,21.60
2022-09-12T00:16:35.521Z,21.70
2022-09-12T00:19:04.685Z,21.60
2022-09-12T00:21:35.085Z,21.70
2022-09-12T00:24:04.277Z,21.70
2022-09-12T00:26:33.431Z,21.60
2022-09-12T00:29:03.417Z,21.30
2022-09-12T00:31:32.015Z,21.30
2022-09-12T00:34:01.887Z,21.30
2022-09-12T00:36:31.563Z,21.40
2022-09-12T00:39:00.528Z,21.40
2022-09-12T00:41:31.470Z,21.40
2022-09-12T00:44:03.132Z,21.30
2022-09-12T00:46:37.770Z,21.20
2022-09-12T00:49:12.880Z,21.20
2022-09-12T00:51:46.339Z,21.20
2022-09-12T00:54:18.444Z,21.30
2022-09-12T00:56:50.017Z,21.40
2022-09-12T00:59:23.816Z,21.40
2022-09-12T01:01:53.627Z,21.30
2022-09-12T01:04:24.741Z,21.30
2022-09-12T01:06:54.039Z,21.20
2022-09-12T01:09:24.464Z,21.20
2022-09-12T01:11:54.342Z,21.10
2022-09-12T01:14:24.329Z,21.00
2022-09-12T01:16:53.512Z,21.00
2022-09-12T01:19:51.443Z,21.00
2022-09-12T01:22:43.589Z,20.90
2022-09-12T01:25:20.594Z,20.90
2022-09-12T01:28:03.958Z,20.90
2022-09-12T01:30:46.480Z,20.90
2022-09-12T01:33:41.085Z,21.00
2022-09-12T01:36:33.680Z,21.00
2022-09-12T01:39:05.382Z,21.10
2022-09-12T01:41:50.088Z,21.00
2022-09-12T01:44:30.585Z,21.00
2022-09-12T01:47:08.622Z,21.00
2022-09-12T01:49:42.948Z,21.00
2022-09-12T01:52:16.934Z,20.90
2022-09-12T01:54:49.247Z,21.00
2022-09-12T01:57:25.169Z,21.00
2022-09-12T01:59:59.782Z,21.10
2022-09-12T02:02:34.843Z,21.00
2022-09-12T02:05:10.928Z,20.90
2022-09-12T02:07:43.284Z,20.90
2022-09-12T02:10:16.406Z,21.00
2022-09-12T02:12:49.090Z,21.00
2022-09-12T02:15:21.650Z,21.00
2022-09-12T02:17:53.660Z,20.90
2022-09-12T02:20:46.510Z,20.80
2022-09-12T02:23:17.161Z,20.80
2022-09-12T02:25:49.732Z,20.80
2022-09-12T02:28:22.923Z,20.90
2022-09-12T02:31:00.823Z,20.90
2022-09-12T02:33:39.369Z,20.90
2022-09-12T02:36:17.946Z,20.90
2022-09-12T02:38:48.200Z,20.80
2022-09-12T02:41:20.703Z,20.70
2022-09-12T02:43:51.699Z,20.70
2022-09-12T02:46:24.979Z,20.60
2022-09-12T02:48:56.819Z,20.60
2022-09-12T02:51:27.314Z,20.70
2022-09-12T02:53:55.933Z,20.60
2022-09-12T02:56:28.696Z,20.60
2022-09-12T02:59:01.379Z,20.60
2022-09-12T03:01:42.463Z,20.60
2022-09-12T03:04:40.217Z,20.60
2022-09-12T03:07:17.889Z,20.70
2022-09-12T03:09:50.661Z,20.70
2022-09-12T03:12:30.191Z,20.70
2022-09-12T03:15:18.594Z,20.60
2022-09-12T03:18:05.817Z,20.60
2022-09-12T03:20:46.365Z,20.50
2022-09-12T03:23:25.462Z,20.40
2022-09-12T03:25:58.495Z,20.40
2022-09-12T03:28:27.805Z,20.40
2022-09-12T03:30:56.661Z,20.40
2022-09-12T03:33:26.448Z,20.30
2022-09-12T03:35:56.954Z,20.30
2022-09-12T03:38:25.487Z,20.40
2022-09-12T03:40:54.954Z,20.30
2022-09-12T03:43:23.755Z,20.30
2022-09-12T03:45:53.529Z,20.30
2022-09-12T03:48:22.555Z,20.30
2022-09-12T03:50:51.343Z,20.30
2022-09-12T03:53:21.198Z,20.30
2022-09-12T03:55:49.675Z,20.40
2022-09-12T03:58:18.197Z,20.30
2022-09-12T04:00:46.894Z,20.30
2022-09-12T04:03:15.435Z,20.30
2022-09-12T04:05:43.925Z,20.40
2022-09-12T04:08:12.389Z,20.40
2022-09-12T04:10:42.514Z,20.30
2022-09-12T04:13:11.060Z,20.30
2022-09-12T04:15:39.568Z,20.40
2022-09-12T04:18:08.071Z,20.40
2022-09-12T04:20:37.894Z,20.20
2022-09-12T04:23:07.189Z,20.20
2022-09-12T04:25:35.676Z,20.20
2022-09-12T04:28:05.733Z,20.20
2022-09-12T04:30:35.557Z,20.20
2022-09-12T04:33:07.976Z,20.30
2022-09-12T04:35:37.657Z,20.20
2022-09-12T04:38:06.190Z,20.20
2022-09-12T04:40:34.746Z,20.10
2022-09-12T04:43:03.232Z,20.10
2022-09-12T04:45:33.149Z,20.10
2022-09-12T04:48:01.967Z,20.20
2022-09-12T04:50:30.438Z,20.20
2022-09-12T04:52:58.934Z,20.20
2022-09-12T04:55:27.489Z,20.10
2022-09-12T04:57:56.032Z,20.10
2022-09-12T05:00:24.708Z,20.20
2022-09-12T05:02:54.643Z,20.20
2022-09-12T05:05:23.198Z,20.30
2022-09-12T05:07:51.617Z,20.30
2022-09-12T05:10:20.122Z,20.40
2022-09-12T05:12:48.644Z,20.40
2022-09-12T05:15:18.250Z,20.40
2022-09-12T05:17:46.737Z,20.50
2022-09-12T05:20:17.543Z,20.50
2022-09-12T05:22:45.994Z,20.60
2022-09-12T05:25:14.505Z,20.60
2022-09-12T05:27:45.465Z,20.60
2022-09-12T05:30:16.092Z,20.60
2022-09-12T05:32:44.830Z,20.60
2022-09-12T05:35:13.386Z,20.60
2022-09-12T05:37:44.593Z,20.80
2022-09-12T05:40:16.243Z,20.90
2022-09-12T05:42:44.764Z,20.90
2022-09-12T05:45:14.323Z,21.00
2022-09-12T05:47:43.989Z,21.10
2022-09-12T05:50:12.506Z,21.30
2022-09-12T05:52:42.638Z,21.30
2022-09-12T05:55:11.901Z,21.40
2022-09-12T05:57:40.664Z,21.40
2022-09-12T06:00:10.818Z,21.40
2022-09-12T06:02:42.299Z,21.50
2022-09-12T06:05:11.076Z,21.60
2022-09-12T06:07:39.735Z,21.70
2022-09-12T06:10:12.092Z,21.70
2022-09-12T06:12:40.737Z,21.80
2022-09-12T06:15:10.471Z,21.80
2022-09-12T06:17:39.026Z,22.00
2022-09-12T06:20:08.425Z,22.00
2022-09-12T06:22:36.995Z,21.90
2022-09-12T06:25:05.907Z,22.10
2022-09-12T06:27:36.778Z,22.40
2022-09-12T06:30:07.123Z,22.40
2022-09-12T06:32:35.816Z,22.50
2022-09-12T06:35:05.640Z,22.70
2022-09-12T06:37:34.353Z,22.80
2022-09-12T06:40:03.397Z,22.90
2022-09-12T06:42:32.691Z,23.00
2022-09-12T06:45:02.747Z,23.00
2022-09-12T06:47:31.313Z,23.00
2022-09-12T06:49:59.800Z,23.00
2022-09-12T06:52:29.295Z,22.90
2022-09-12T06:54:57.785Z,22.90
2022-09-12T06:57:30.184Z,23.00
2022-09-12T06:59:58.936Z,23.00
2022-09-12T07:02:28.913Z,23.10
2022-09-12T07:04:57.527Z,23.10
2022-09-12T07:07:26.015Z,23.10
2022-09-12T07:09:54.641Z,23.10
2022-09-12T07:12:23.087Z,23.30
2022-09-12T07:14:51.575Z,23.40
2022-09-12T07:17:20.408Z,23.50
2022-09-12T07:19:50.290Z,23.50
2022-09-12T07:22:18.821Z,23.60
2022-09-12T07:24:47.753Z,23.70
2022-09-12T07:27:16.235Z,23.70
2022-09-12T07:29:46.981Z,23.80
2022-09-12T07:32:16.190Z,23.80
2022-09-12T07:34:44.697Z,23.70
2022-09-12T07:37:14.620Z,23.80
2022-09-12T07:39:43.144Z,23.70
2022-09-12T07:42:11.659Z,23.70
2022-09-12T07:44:40.202Z,23.70
2022-09-12T07:47:09.198Z,23.80
2022-09-12T07:49:37.677Z,23.90
2022-09-12T07:52:06.618Z,24.00
2022-09-12T07:54:36.734Z,24.00
2022-09-12T07:57:05.396Z,24.10
2022-09-12T07:59:51.991Z,24.20
2022-09-12T08:02:21.750Z,24.20
2022-09-12T08:04:51.524Z,24.20
2022-09-12T08:07:20.878Z,24.30
2022-09-12T08:09:50.756Z,24.30
2022-09-12T08:12:20.420Z,24.40
2022-09-12T08:14:48.905Z,24.50
2022-09-12T08:17:17.446Z,24.40
2022-09-12T08:19:46.028Z,24.50
2022-09-12T08:22:15.527Z,24.50
2022-09-12T08:24:44.514Z,24.60
2022-09-12T08:27:14.931Z,24.70
2022-09-12T08:29:43.435Z,24.80
2022-09-12T08:32:11.972Z,24.90
2022-09-12T08:34:40.453Z,24.90
2022-09-12T08:37:08.888Z,24.80
2022-09-12T08:39:37.497Z,24.70
2022-09-12T08:42:07.516Z,24.70
2022-09-12T08:45:11.455Z,24.70
2022-09-12T08:47:46.198Z,24.80
2022-09-12T08:50:18.687Z,24.80
2022-09-12T08:52:55.060Z,24.80
2022-09-12T08:55:33.488Z,24.70
2022-09-12T08:58:03.185Z,24.80
2022-09-12T09:00:40.884Z,24.90
2022-09-12T09:03:47.186Z,25.00
2022-09-12T09:06:27.040Z,25.10
2022-09-12T09:09:05.090Z,25.30
2022-09-12T09:11:48.300Z,25.30
2022-09-12T09:14:51.011Z,25.40
2022-09-12T09:17:27.218Z,25.40
2022-09-12T09:20:04.540Z,25.40
2022-09-12T09:22:46.201Z,25.40
2022-09-12T09:25:23.052Z,25.50
2022-09-12T09:27:58.777Z,25.50
2022-09-12T09:30:28.755Z,25.50
2022-09-12T09:33:01.239Z,25.70
2022-09-12T09:35:44.062Z,25.80
2022-09-12T09:38:24.059Z,25.90
2022-09-12T09:41:12.483Z,25.90
2022-09-12T09:43:41.156Z,25.90
2022-09-12T09:46:09.833Z,25.90
2022-09-12T09:48:41.957Z,25.90
2022-09-12T09:51:13.201Z,26.00
2022-09-12T09:53:47.884Z,26.20
2022-09-12T09:56:29.780Z,26.10
2022-09-12T09:58:58.578Z,26.00
2022-09-12T10:01:28.283Z,26.00
2022-09-12T10:03:57.850Z,26.00
2022-09-12T10:06:38.328Z,26.10
2022-09-12T10:09:18.719Z,26.20
2022-09-12T10:11:48.206Z,26.20
2022-09-12T10:14:36.754Z,26.10
2022-09-12T10:17:25.236Z,26.10
2022-09-12T10:20:17.488Z,26.10
2022-09-12T10:22:49.001Z,26.10
2022-09-12T10:25:21.454Z,26.30
2022-09-12T10:27:57.391Z,26.40
2022-09-12T10:30:28.820Z,26.60
2022-09-12T10:33:07.045Z,26.60
2022-09-12T10:35:46.995Z,26.80
2022-09-12T10:38:22.879Z,27.00
2022-09-12T10:40:59.857Z,27.20
2022-09-12T10:43:31.583Z,27.40
2022-09-12T10:46:01.314Z,27.40
2022-09-12T10:48:31.982Z,27.40
2022-09-12T10:51:01.279Z,27.70
2022-09-12T10:53:40.808Z,27.50
2022-09-12T10:56:14.024Z,27.30
2022-09-12T10:59:11.912Z,27.40
2022-09-12T11:01:45.975Z,27.70
2022-09-12T11:04:43.120Z,27.90
2022-09-12T11:07:26.585Z,27.80
2022-09-12T11:10:04.150Z,27.80
2022-09-12T11:12:41.669Z,27.60
2022-09-12T11:15:30.815Z,27.80
2022-09-12T11:18:07.455Z,27.90
2022-09-12T11:21:01.116Z,28.00
2022-09-12T11:24:00.536Z,27.90
2022-09-12T11:26:46.023Z,28.00
2022-09-12T11:29:25.046Z,28.00
2022-09-12T11:32:29.026Z,28.30
2022-09-12T11:35:05.217Z,28.10
2022-09-12T11:37:50.240Z,28.10
2022-09-12T11:40:30.851Z,28.40
2022-09-12T11:43:06.977Z,28.40
2022-09-12T11:45:41.522Z,28.10
2022-09-12T11:48:17.447Z,27.90
2022-09-12T11:50:46.019Z,27.90
2022-09-12T11:53:20.304Z,28.10
2022-09-12T11:55:56.486Z,28.30
2022-09-12T11:58:31.831Z,28.40
2022-09-12T12:01:10.682Z,28.60
2022-09-12T12:03:43.632Z,28.70
2022-09-12T12:06:16.655Z,28.60
2022-09-12T12:08:47.285Z,28.50
2022-09-12T12:11:17.676Z,28.40
2022-09-12T12:13:52.529Z,28.40
2022-09-12T12:16:27.254Z,28.60
2022-09-12T12:19:00.371Z,28.40
2022-09-12T12:21:41.168Z,28.30
2022-09-12T12:24:19.052Z,28.00
2022-09-12T12:26:58.662Z,28.20
2022-09-12T12:29:45.977Z,28.30
2022-09-12T12:32:25.902Z,28.20
2022-09-12T12:35:31.507Z,28.00
2022-09-12T12:38:01.707Z,28.00
2022-09-12T12:40:31.986Z,28.30
2022-09-12T12:43:16.986Z,28.40
2022-09-12T12:46:12.727Z,28.50
2022-09-12T12:49:14.178Z,28.30
2022-09-12T12:52:02.111Z,28.20
2022-09-12T12:54:33.683Z,28.40
2022-09-12T12:57:07.617Z,28.20
2022-09-12T12:59:36.231Z,28.30
2022-09-12T13:02:06.543Z,28.40
2022-09-12T13:04:36.082Z,28.50
2022-09-12T13:07:08.831Z,28.50
2022-09-12T13:09:45.349Z,28.50
2022-09-12T13:12:22.933Z,28.60
2022-09-12T13:14:54.869Z,28.60
2022-09-12T13:17:32.513Z,28.30
2022-09-12T13:20:27.190Z,28.50
2022-09-12T13:22:57.293Z,28.40
2022-09-12T13:25:29.978Z,28.50
2022-09-12T13:28:04.906Z,28.50
2022-09-12T13:30:35.334Z,28.50
2022-09-12T13:33:28.671Z,28.70
2022-09-12T13:36:28.066Z,29.10
2022-09-12T13:39:21.512Z,29.50
2022-09-12T13:42:25.985Z,29.60
2022-09-12T13:44:59.864Z,30.30
2022-09-12T13:47:34.476Z,29.90
2022-09-12T13:50:07.362Z,30.30
2022-09-12T13:52:39.258Z,31.30
2022-09-12T13:55:17.017Z,31.80
2022-09-12T13:57:45.754Z,31.90
2022-09-12T14:00:20.043Z,32.20
2022-09-12T14:02:49.666Z,32.00
2022-09-12T14:05:22.770Z,31.70
2022-09-12T14:07:57.322Z,32.00
2022-09-12T14:10:30.310Z,33.30
2022-09-12T14:13:00.260Z,33.40
2022-09-12T14:15:31.327Z,33.10
2022-09-12T14:18:03.763Z,31.50
2022-09-12T14:20:38.701Z,31.40
2022-09-12T14:23:17.924Z,31.10
2022-09-12T14:25:48.109Z,32.10
2022-09-12T14:28:23.556Z,32.00
2022-09-12T14:31:01.686Z,32.20
2022-09-12T14:33:32.856Z,32.00
2022-09-12T14:36:23.243Z,30.80
2022-09-12T14:38:54.108Z,29.00
2022-09-12T14:41:27.409Z,28.20
2022-09-12T14:43:59.417Z,27.60
2022-09-12T14:46:33.951Z,27.10
2022-09-12T14:49:09.287Z,27.20
2022-09-12T14:51:41.851Z,27.10
2022-09-12T14:54:37.380Z,27.00
2022-09-12T14:57:08.047Z,26.90
2022-09-12T14:59:40.947Z,26.90
2022-09-12T15:02:27.454Z,26.80
2022-09-12T15:05:15.769Z,26.70
2022-09-12T15:07:53.886Z,26.60
2022-09-12T15:10:26.414Z,26.50
2022-09-12T15:13:14.252Z,26.50
2022-09-12T15:15:44.875Z,26.50
2022-09-12T15:18:13.913Z,26.50
2022-09-12T15:20:44.734Z,26.40
2022-09-12T15:23:20.274Z,26.30
2022-09-12T15:25:50.342Z,26.30
2022-09-12T15:28:21.481Z,26.20
2022-09-12T15:30:51.875Z,26.10
2022-09-12T15:33:22.973Z,26.00
2022-09-12T15:35:59.929Z,26.10
2022-09-12T15:38:30.395Z,26.10
2022-09-12T15:40:58.887Z,26.00
2022-09-12T15:43:28.125Z,26.00
2022-09-12T15:45:56.724Z,25.90
2022-09-12T15:48:28.272Z,25.80
2022-09-12T15:51:01.460Z,25.90
2022-09-12T15:53:31.871Z,25.80
2022-09-12T15:56:00.350Z,25.90
2022-09-12T15:58:28.839Z,25.90
2022-09-12T16:00:57.616Z,25.80
2022-09-12T16:03:28.815Z,25.70
2022-09-12T16:05:59.141Z,25.60
2022-09-12T16:08:27.690Z,25.70
2022-09-12T16:10:59.784Z,25.60
2022-09-12T16:13:28.354Z,25.50
2022-09-12T16:15:59.230Z,25.50
2022-09-12T16:18:28.361Z,25.50
2022-09-12T16:20:57.489Z,25.40
2022-09-12T16:23:26.214Z,25.30
2022-09-12T16:25:59.844Z,25.30
2022-09-12T16:28:29.846Z,25.30
2022-09-12T16:30:59.644Z,25.20
2022-09-12T16:33:29.242Z,25.10
2022-09-12T16:36:04.132Z,25.00
2022-09-12T16:38:33.865Z,25.00
2022-09-12T16:41:05.254Z,25.10
2022-09-12T16:43:36.050Z,25.00
2022-09-12T16:46:05.782Z,24.90
2022-09-12T16:48:35.032Z,24.90
2022-09-12T16:51:06.963Z,24.80
2022-09-12T16:53:37.182Z,24.70
2022-09-12T16:56:07.714Z,24.70
2022-09-12T16:58:41.638Z,24.70
2022-09-12T17:01:12.658Z,24.50
2022-09-12T17:03:41.560Z,24.50
2022-09-12T17:06:11.254Z,24.50
2022-09-12T17:08:41.266Z,24.50
2022-09-12T17:11:13.709Z,24.50
2022-09-12T17:14:03.244Z,24.40
2022-09-12T17:16:31.302Z,24.30
2022-09-12T17:19:00.019Z,24.10
2022-09-12T17:21:29.009Z,24.20
2022-09-12T17:23:57.507Z,24.10
2022-09-12T17:26:27.511Z,24.10
2022-09-12T17:28:58.755Z,24.00
2022-09-12T17:31:27.805Z,24.00
2022-09-12T17:33:59.155Z,24.00
2022-09-12T17:36:29.036Z,23.90
2022-09-12T17:38:57.930Z,23.80
2022-09-12T17:41:31.874Z,23.80
2022-09-12T17:44:02.555Z,23.90
2022-09-12T17:46:35.240Z,23.80
2022-09-12T17:49:05.840Z,23.80
2022-09-12T17:51:34.783Z,23.70
2022-09-12T17:54:06.185Z,23.70
2022-09-12T17:56:38.228Z,23.80
2022-09-12T17:59:08.578Z,23.70
2022-09-12T18:01:54.541Z,23.70
2022-09-12T18:04:23.142Z,23.60
2022-09-12T18:06:54.227Z,23.70
2022-09-12T18:09:25.239Z,23.70
2022-09-12T18:11:55.373Z,23.60
2022-09-12T18:14:24.127Z,23.60
2022-09-12T18:16:52.680Z,23.50
2022-09-12T18:19:21.191Z,23.50
2022-09-12T18:21:49.685Z,23.50
2022-09-12T18:24:18.190Z,23.60
2022-09-12T18:26:48.502Z,23.60
2022-09-12T18:29:20.171Z,23.50
2022-09-12T18:31:48.759Z,23.50
2022-09-12T18:34:18.178Z,23.50
2022-09-12T18:36:51.059Z,23.50
2022-09-12T18:39:25.246Z,23.40
2022-09-12T18:41:56.389Z,23.40
2022-09-12T18:44:26.295Z,23.30
2022-09-12T18:46:54.860Z,23.40
2022-09-12T18:49:23.856Z,23.40
2022-09-12T18:51:52.422Z,23.30
2022-09-12T18:54:21.008Z,23.40
2022-09-12T18:56:49.853Z,23.40
2022-09-12T18:59:18.375Z,23.40
2022-09-12T19:01:48.385Z,23.40
2022-09-12T19:04:17.024Z,23.50
2022-09-12T19:06:46.628Z,23.50
2022-09-12T19:09:16.976Z,23.60
2022-09-12T19:11:50.155Z,23.50
2022-09-12T19:14:22.683Z,23.20
2022-09-12T19:16:53.039Z,23.30
2022-09-12T19:19:24.769Z,23.20
2022-09-12T19:21:53.702Z,23.20
2022-09-12T19:24:22.180Z,23.20
2022-09-12T19:26:51.776Z,23.20
2022-09-12T19:29:20.464Z,23.10
2022-09-12T19:31:48.904Z,22.90
2022-09-12T19:34:18.821Z,22.80
2022-09-12T19:36:47.699Z,22.50
2022-09-12T19:39:17.768Z,22.50
2022-09-12T19:41:46.834Z,22.50
2022-09-12T19:44:15.370Z,22.40
2022-09-12T19:46:44.047Z,22.40
2022-09-12T19:49:13.963Z,22.40
2022-09-12T19:51:43.994Z,22.40
2022-09-12T19:54:12.609Z,22.20
2022-09-12T19:56:41.097Z,22.30
2022-09-12T19:59:09.984Z,22.20
2022-09-12T20:01:39.876Z,22.10
2022-09-12T20:04:08.503Z,22.00
2022-09-12T20:06:37.007Z,21.90
2022-09-12T20:09:07.102Z,21.90
2022-09-12T20:11:36.437Z,22.00
2022-09-12T20:14:04.967Z,22.10
2022-09-12T20:16:33.751Z,22.00
2022-09-12T20:19:07.098Z,21.90
2022-09-12T20:21:36.903Z,21.90
2022-09-12T20:24:08.659Z,22.00
2022-09-12T20:26:37.479Z,21.90
2022-09-12T20:29:07.203Z,21.90
2022-09-12T20:31:36.794Z,21.90
2022-09-12T20:34:06.076Z,21.90
2022-09-12T20:36:35.188Z,21.80
2022-09-12T20:39:04.463Z,21.80
2022-09-12T20:41:36.517Z,21.90
2022-09-12T20:44:05.084Z,21.80
2022-09-12T20:46:33.728Z,21.70
2022-09-12T20:49:02.229Z,21.60
2022-09-12T20:51:30.926Z,21.60
2022-09-12T20:54:00.781Z,21.60
2022-09-12T20:56:29.954Z,21.60
2022-09-12T20:59:01.126Z,21.60
2022-09-12T21:01:31.433Z,21.60
2022-09-12T21:04:01.400Z,21.60
2022-09-12T21:06:29.959Z,21.60
2022-09-12T21:09:00.615Z,21.60
2022-09-12T21:11:29.957Z,21.50
2022-09-12T21:13:59.939Z,21.50
2022-09-12T21:16:28.626Z,21.40
2022-09-12T21:18:59.524Z,21.50
2022-09-12T21:21:28.913Z,21.40
2022-09-12T21:23:59.764Z,21.20
2022-09-12T21:26:28.580Z,21.30
2022-09-12T21:28:57.575Z,21.40
2022-09-12T21:31:27.721Z,21.50
2022-09-12T21:33:56.316Z,21.30
2022-09-12T21:36:25.719Z,21.30
2022-09-12T21:38:54.401Z,21.30
2022-09-12T21:41:22.870Z,21.30
2022-09-12T21:43:51.454Z,21.10
2022-09-12T21:46:20.091Z,21.00
2022-09-12T21:48:50.262Z,20.90
2022-09-12T21:51:18.878Z,20.80
2022-09-12T21:53:47.412Z,20.80
2022-09-12T21:56:15.999Z,20.80
2022-09-12T21:58:44.451Z,20.80
2022-09-12T22:01:13.654Z,20.90
2022-09-12T22:03:44.927Z,20.80
2022-09-12T22:06:17.721Z,20.70
2022-09-12T22:08:48.333Z,20.60
2022-09-12T22:11:17.665Z,20.60
2022-09-12T22:13:46.234Z,20.60
2022-09-12T22:16:14.822Z,20.50
2022-09-12T22:18:43.354Z,20.40
2022-09-12T22:21:15.997Z,20.50
2022-09-12T22:24:13.592Z,20.50
2022-09-12T22:26:43.357Z,20.50
2022-09-12T22:29:13.385Z,20.50
2022-09-12T22:31:42.229Z,20.50
2022-09-12T22:34:10.780Z,20.40
2022-09-12T22:36:40.930Z,20.30
2022-09-12T22:39:09.913Z,20.40
2022-09-12T22:41:38.439Z,20.40
2022-09-12T22:44:06.987Z,20.20
2022-09-12T22:46:35.543Z,20.30
2022-09-12T22:49:05.388Z,20.30
2022-09-12T22:51:34.765Z,20.30
2022-09-12T22:54:05.753Z,20.40
2022-09-12T22:56:34.467Z,20.30
2022-09-12T22:59:03.018Z,20.20
2022-09-12T23:01:31.988Z,20.20
2022-09-12T23:04:01.588Z,20.20
2022-09-12T23:06:30.328Z,20.20
2022-09-12T23:08:58.807Z,20.30
2022-09-12T23:11:28.999Z,20.20
2022-09-12T23:13:57.486Z,20.10
2022-09-12T23:16:28.444Z,20.00
2022-09-12T23:18:57.177Z,20.10
2022-09-12T23:21:25.867Z,20.20
2022-09-12T23:23:56.349Z,20.10
2022-09-12T23:26:28.309Z,19.90
2022-09-12T23:29:00.187Z,20.00
2022-09-12T23:31:30.906Z,19.90
2022-09-12T23:34:02.017Z,19.80
2022-09-12T23:36:31.208Z,19.90
2022-09-12T23:39:00.171Z,19.80
2022-09-12T23:41:29.797Z,19.80
2022-09-12T23:43:59.988Z,19.80
2022-09-12T23:46:28.630Z,19.80
2022-09-12T23:48:57.112Z,19.70
2022-09-12T23:51:25.652Z,19.80
2022-09-12T23:53:54.174Z,19.80
2022-09-12T23:56:23.414Z,19.70
2022-09-12T23:58:51.908Z,19.70
